Time;durP1;ratioP1;P1;durP2;ratioP2;P2;SDS_P1;SDS_P2;PMS_P1;PMS_P2;Temp;Humidity;BMP_temperature;BMP_pressure;BME280_temperature;BME280_humidity;BME280_pressure;Samples;Min_cycle;Max_cycle;Signal;HPM_P1;HPM_P2
2022/05/16 04:12:17;;;;;;;;;;;;;;;20.48;60.48;97113.06;4244878;27;10377;-74
2022/05/16 04:14:20;;;;;;;;;;;;;;;20.68;60.45;97123.25;4230643;27;5663;-74
2022/05/16 04:16:24;;;;;;;;;;;;;;;20.86;60.45;97126.47;4245353;27;5853;-74
2022/05/16 04:18:27;;;;;;;;;;;;;;;21.00;60.26;97134.94;4248661;27;5725;-74
2022/05/16 04:20:30;;;;;;;;;;;;;;;21.12;59.64;97140.19;4232604;27;5654;-74
2022/05/16 04:22:33;;;;;;;;;;;;;;;21.21;59.83;97144.06;4227460;27;5832;-74
2022/05/16 04:24:36;;;;;;;;;;;;;;;21.30;59.87;97147.16;4228359;27;5909;-74
2022/05/16 04:26:39;;;;;;;;;;;;;;;21.38;59.49;97155.56;4227750;28;5675;-74
2022/05/16 04:28:44;;;;;;;;;;;;;;;21.44;59.56;97149.19;4224707;28;5785;-74
2022/05/16 04:30:47;;;;;;;;;;;;;;;21.48;59.23;97154.84;4227259;28;5679;-75
2022/05/16 04:32:50;;;;;;;;;;;;;;;21.51;59.39;97159.72;4228207;28;5801;-74
2022/05/16 04:34:53;;;;;;;;;;;;;;;21.57;59.43;97168.66;4228505;28;5842;-74
2022/05/16 04:36:55;;;;;;;;;;;;;;;21.61;59.19;97167.06;4223542;28;5779;-74
2022/05/16 04:38:58;;;;;;;;;;;;;;;21.64;59.03;97169.28;4231605;28;5690;-74
2022/05/16 04:43:22;;;;;;;;;;;;;;;21.69;58.85;97172.00;4231500;28;5663;-74
2022/05/16 04:45:28;;;;;;;;;;;;;;;21.71;59.34;97180.63;4231252;28;5675;-74
2022/05/16 04:47:32;;;;;;;;;;;;;;;21.71;59.02;97178.75;4231052;28;5714;-74
2022/05/16 04:49:35;;;;;;;;;;;;;;;21.71;58.86;97184.13;4231331;28;5675;-74
2022/05/16 04:51:39;;;;;;;;;;;;;;;21.71;59.13;97181.44;4231634;28;5667;-74
2022/05/16 04:53:42;;;;;;;;;;;;;;;21.71;58.74;97191.41;4231283;28;5773;-74
2022/05/16 04:55:45;;;;;;;;;;;;;;;21.71;59.15;97194.09;4224219;28;5695;-75
2022/05/16 04:57:48;;;;;;;;;;;;;;;21.68;58.98;97199.97;4215885;28;5663;-74
2022/05/16 04:59:50;;;;;;;;;;;;;;;21.70;58.95;97203.22;4230051;28;5672;-75
2022/05/16 05:01:55;;;;;;;;;;;;;;;21.70;58.60;97201.34;4230647;28;5758;-75
2022/05/16 05:03:58;;;;;;;;;;;;;;;21.73;58.58;97194.63;4231604;28;5688;-75
2022/05/16 05:06:01;;;;;;;;;;;;;;;21.73;58.94;97194.63;4231562;28;5855;-75
2022/05/16 05:08:04;;;;;;;;;;;;;;;21.75;58.53;97201.41;4230369;28;5780;-75
2022/05/16 05:14:52;;;;;;;;;;;;;;;21.74;58.55;97209.72;4218906;28;5728;-75
2022/05/16 05:16:56;;;;;;;;;;;;;;;21.74;58.53;97217.78;4211455;28;5692;-75
2022/05/16 05:18:59;;;;;;;;;;;;;;;21.74;58.38;97225.88;4211423;28;5734;-75
2022/05/16 05:21:02;;;;;;;;;;;;;;;21.78;58.59;97232.38;4219094;28;5743;-74
2022/05/16 05:23:06;;;;;;;;;;;;;;;21.78;58.56;97232.38;4218123;28;5679;-75
2022/05/16 05:25:11;;;;;;;;;;;;;;;21.78;58.49;97232.38;4218698;28;5667;-75
2022/05/16 05:27:14;;;;;;;;;;;;;;;21.80;57.92;97233.75;4217403;28;5758;-75
2022/05/16 05:29:19;;;;;;;;;;;;;;;21.83;57.90;97245.88;4217048;28;5917;-75
2022/05/16 05:31:25;;;;;;;;;;;;;;;21.85;57.93;97251.81;4215147;28;5720;-81
2022/05/16 05:33:30;;;;;;;;;;;;;;;21.89;58.00;97252.13;4207447;28;5711;-76
2022/05/16 05:35:33;;;;;;;;;;;;;;;21.93;57.51;97248.66;4214530;28;5928;-77
2022/05/16 05:37:36;;;;;;;;;;;;;;;21.99;57.36;97257.63;4218168;28;5803;-76
2022/05/16 05:39:39;;;;;;;;;;;;;;;22.09;57.47;97257.75;4218240;28;5770;-77
2022/05/16 05:41:47;;;;;;;;;;;;;;;22.21;56.80;97261.09;4219665;28;5702;-77
2022/05/16 05:43:51;;;;;;;;;;;;;;;22.35;56.79;97261.47;4218607;28;5756;-77
2022/05/16 05:45:53;;;;;;;;;;;;;;;22.46;56.48;97271.25;4218285;28;5825;-77
2022/05/16 05:47:59;;;;;;;;;;;;;;;22.59;56.04;97273.50;4219207;28;5656;-77
2022/05/16 05:50:04;;;;;;;;;;;;;;;22.72;55.97;97274.94;4219277;28;5679;-77
2022/05/16 05:52:07;;;;;;;;;;;;;;;22.80;55.71;97279.06;4219758;28;5876;-78
2022/05/16 05:54:10;;;;;;;;;;;;;;;22.86;55.57;97278.84;4220322;28;5659;-77
2022/05/16 05:56:16;;;;;;;;;;;;;;;22.90;55.69;97271.88;4219676;28;5687;-78
2022/05/16 05:58:19;;;;;;;;;;;;;;;22.99;55.76;97265.97;4218270;28;5681;-77
2022/05/16 06:00:22;;;;;;;;;;;;;;;23.04;55.29;97264.13;4218485;28;5664;-77
2022/05/16 06:02:25;;;;;;;;;;;;;;;23.05;55.64;97260.38;4216140;28;5656;-77
2022/05/16 06:04:28;;;;;;;;;;;;;;;22.98;55.72;97258.97;4218785;28;6367;-77
2022/05/16 06:06:32;;;;;;;;;;;;;;;22.90;55.37;97257.59;4219519;28;5667;-77
2022/05/16 06:08:35;;;;;;;;;;;;;;;22.87;55.47;97252.69;4218362;28;5672;-77
2022/05/16 06:10:38;;;;;;;;;;;;;;;22.85;55.90;97254.84;4214511;28;5824;-77
2022/05/16 06:12:42;;;;;;;;;;;;;;;22.86;55.54;97262.66;4203116;28;5722;-77
2022/05/16 06:14:45;;;;;;;;;;;;;;;22.90;55.58;97262.97;4202266;28;5692;-78
2022/05/16 06:16:48;;;;;;;;;;;;;;;22.92;55.28;97250.06;4217789;28;5680;-78
2022/05/16 06:18:51;;;;;;;;;;;;;;;22.99;55.36;97255.19;4218604;28;5749;-78
2022/05/16 06:20:54;;;;;;;;;;;;;;;23.09;55.14;97261.47;4217952;28;6272;-80
2022/05/16 06:22:59;;;;;;;;;;;;;;;23.19;54.71;97261.50;4215590;28;5702;-80
2022/05/16 06:27:23;;;;;;;;;;;;;;;23.43;53.99;97261.88;4218525;28;6188;-75
2022/05/16 06:29:26;;;;;;;;;;;;;;;23.52;54.29;97265.69;4217185;28;5766;-75
2022/05/16 06:31:29;;;;;;;;;;;;;;;23.61;53.58;97263.34;4206915;28;5738;-75
2022/05/16 06:33:32;;;;;;;;;;;;;;;23.68;53.95;97261.22;4203193;28;5724;-75
2022/05/16 06:35:36;;;;;;;;;;;;;;;23.70;53.64;97267.16;4204737;28;5811;-75
2022/05/16 06:37:39;;;;;;;;;;;;;;;23.69;53.87;97262.03;4212002;28;7718;-75
2022/05/16 06:39:46;;;;;;;;;;;;;;;23.69;53.63;97264.72;4218159;28;6498;-76
2022/05/16 06:41:49;;;;;;;;;;;;;;;23.64;53.37;97268.19;4218444;28;5671;-76
2022/05/16 06:43:52;;;;;;;;;;;;;;;23.60;53.37;97267.13;4218691;28;5672;-76
2022/05/16 06:45:56;;;;;;;;;;;;;;;23.56;53.46;97267.88;4217813;28;5683;-70
2022/05/16 06:48:01;;;;;;;;;;;;;;;23.52;53.72;97271.09;4217425;28;5783;-69
2022/05/16 06:50:05;;;;;;;;;;;;;;;23.48;53.67;97271.91;4218568;28;6402;-76
2022/05/16 06:52:08;;;;;;;;;;;;;;;23.40;54.00;97283.19;4217680;28;5684;-75
2022/05/16 06:54:13;;;;;;;;;;;;;;;23.38;53.42;97286.16;4218079;28;5762;-75
2022/05/16 06:56:17;;;;;;;;;;;;;;;23.31;53.61;97292.84;4207318;28;5700;-75
2022/05/16 06:58:20;;;;;;;;;;;;;;;23.27;53.79;97295.28;4213285;28;5779;-75
2022/05/16 07:00:24;;;;;;;;;;;;;;;23.23;53.48;97297.69;4203888;28;5780;-74
2022/05/16 07:02:27;;;;;;;;;;;;;;;23.23;53.71;97295.00;4217609;28;5819;-75
2022/05/16 07:04:30;;;;;;;;;;;;;;;23.21;53.40;97293.59;4213958;28;5725;-75
2022/05/16 07:06:34;;;;;;;;;;;;;;;23.17;53.80;97300.63;4201182;28;5775;-76
2022/05/16 07:08:36;;;;;;;;;;;;;;;23.15;53.39;97306.28;4200911;28;5681;-76
2022/05/16 07:10:39;;;;;;;;;;;;;;;23.15;53.45;97305.47;4200531;28;5851;-75
2022/05/16 07:12:44;;;;;;;;;;;;;;;23.12;53.40;97304.09;4217287;28;5716;-75
2022/05/16 07:14:48;;;;;;;;;;;;;;;23.10;53.17;97298.13;4216886;28;5659;-75
2022/05/16 07:16:51;;;;;;;;;;;;;;;23.08;53.63;97305.69;4212725;28;5659;-75
2022/05/16 07:18:54;;;;;;;;;;;;;;;23.07;53.53;97309.44;4217800;28;5746;-75
2022/05/16 07:20:59;;;;;;;;;;;;;;;23.06;53.38;97307.81;4217679;28;5762;-76
2022/05/16 07:23:02;;;;;;;;;;;;;;;23.05;53.67;97308.91;4217866;28;5747;-75
2022/05/16 07:25:06;;;;;;;;;;;;;;;23.02;53.34;97309.44;4214399;28;5764;-75
2022/05/16 07:29:32;;;;;;;;;;;;;;;22.92;53.90;97322.84;4208984;28;5688;-75
2022/05/16 07:31:36;;;;;;;;;;;;;;;22.91;53.74;97323.91;4217479;28;6403;-75
2022/05/16 07:33:40;;;;;;;;;;;;;;;22.89;53.68;97331.44;4209991;28;5659;-76
2022/05/16 07:35:43;;;;;;;;;;;;;;;22.87;53.88;97344.34;4216360;28;5844;-76
2022/05/16 07:37:47;;;;;;;;;;;;;;;22.82;53.79;97337.03;4210486;28;6398;-76
2022/05/16 07:39:50;;;;;;;;;;;;;;;22.80;54.07;97336.47;4200813;28;5692;-75
2022/05/16 07:41:54;;;;;;;;;;;;;;;22.79;54.05;97336.72;4213548;28;5762;-76
2022/05/16 07:43:57;;;;;;;;;;;;;;;22.77;53.87;97345.09;4209409;28;5693;-76
2022/05/16 07:46:03;;;;;;;;;;;;;;;22.77;53.95;97339.69;4217468;28;5667;-75
2022/05/16 07:48:07;;;;;;;;;;;;;;;22.77;53.80;97347.78;4217359;28;5673;-75
2022/05/16 07:50:10;;;;;;;;;;;;;;;22.76;54.02;97338.03;4213239;28;5770;-74
2022/05/16 07:52:13;;;;;;;;;;;;;;;22.75;54.01;97341.81;4210780;28;7715;-75
2022/05/16 07:54:16;;;;;;;;;;;;;;;22.74;54.41;97336.69;4215325;28;5671;-75
2022/05/16 07:56:19;;;;;;;;;;;;;;;22.72;54.08;97333.44;4215556;28;5662;-75
2022/05/16 07:58:22;;;;;;;;;;;;;;;22.71;54.36;97334.50;4211987;28;5680;-75
2022/05/16 08:00:29;;;;;;;;;;;;;;;22.73;54.12;97333.16;4216967;28;5738;-75
2022/05/16 08:02:34;;;;;;;;;;;;;;;22.75;54.23;97347.19;4216600;28;5116;-75
2022/05/16 08:04:39;;;;;;;;;;;;;;;22.78;54.11;97335.94;4216252;28;6482;-75
2022/05/16 08:06:42;;;;;;;;;;;;;;;22.83;53.92;97341.38;4199474;28;5692;-76
2022/05/16 08:11:09;;;;;;;;;;;;;;;22.86;54.09;97334.66;4216402;28;5698;-75
2022/05/16 08:13:12;;;;;;;;;;;;;;;22.85;53.78;97325.75;4214681;28;5715;-75
2022/05/16 08:15:15;;;;;;;;;;;;;;;22.85;53.67;97327.63;4213165;28;5748;-75
2022/05/16 08:17:19;;;;;;;;;;;;;;;22.83;53.88;97333.28;4200145;28;5689;-75
2022/05/16 08:19:24;;;;;;;;;;;;;;;22.82;53.92;97331.63;4209152;28;5691;-75
2022/05/16 08:21:27;;;;;;;;;;;;;;;22.86;53.79;97326.56;4217213;28;5687;-75
2022/05/16 08:23:31;;;;;;;;;;;;;;;22.91;53.52;97323.91;4212772;28;5775;-75
2022/05/16 08:25:34;;;;;;;;;;;;;;;22.96;53.33;97318.53;4216141;28;5718;-75
2022/05/16 08:27:37;;;;;;;;;;;;;;;23.03;53.30;97318.34;4216295;28;5703;-75
2022/05/16 08:29:40;;;;;;;;;;;;;;;23.07;53.31;97322.13;4217256;28;5680;-75
2022/05/16 08:31:43;;;;;;;;;;;;;;;23.08;52.90;97319.16;4216437;28;5771;-74
2022/05/16 08:33:50;;;;;;;;;;;;;;;23.11;52.51;97323.25;4211399;28;5648;-75
2022/05/16 08:40:44;;;;;;;;;;;;;;;23.14;51.91;97328.09;4199656;28;5764;-75
2022/05/16 08:42:53;;;;;;;;;;;;;;;23.14;51.75;97320.84;4216484;28;5659;-75
2022/05/16 08:45:00;;;;;;;;;;;;;;;23.16;51.19;97320.56;4217483;28;5726;-75
2022/05/16 08:47:16;;;;;;;;;;;;;;;23.18;50.95;97330.00;4217428;28;5695;-75
2022/05/16 08:49:32;;;;;;;;;;;;;;;23.17;51.02;97327.56;4220271;28;5659;-75
2022/05/16 08:51:37;;;;;;;;;;;;;;;23.14;50.96;97330.81;4220166;28;6341;-75
2022/05/16 08:53:46;;;;;;;;;;;;;;;23.11;50.74;97332.16;4219259;28;5715;-75
2022/05/16 08:55:51;;;;;;;;;;;;;;;23.10;50.75;97335.06;4212701;28;5679;-75
2022/05/16 08:58:00;;;;;;;;;;;;;;;23.08;50.63;97340.72;4220326;28;5774;-75
2022/05/16 09:00:10;;;;;;;;;;;;;;;23.09;50.10;97347.75;4219576;28;5871;-75
2022/05/16 09:02:20;;;;;;;;;;;;;;;23.09;50.12;97341.53;4207817;28;5965;-75
2022/05/16 09:04:27;;;;;;;;;;;;;;;23.10;49.70;97343.97;4205226;28;8363;-75
2022/05/16 09:06:39;;;;;;;;;;;;;;;23.08;49.50;97335.34;4220192;28;5679;-75
2022/05/16 09:08:50;;;;;;;;;;;;;;;23.04;49.37;97334.25;4219618;28;5664;-75
2022/05/16 09:11:04;;;;;;;;;;;;;;;23.01;49.49;97337.47;4204745;28;6512;-75
2022/05/16 09:13:19;;;;;;;;;;;;;;;23.01;49.64;97325.88;4203736;28;5713;-75
2022/05/16 09:15:31;;;;;;;;;;;;;;;23.03;49.50;97331.81;4203164;28;5719;-75
2022/05/16 09:17:50;;;;;;;;;;;;;;;23.04;49.39;97338.81;4208001;28;5754;-75
2022/05/16 09:20:07;;;;;;;;;;;;;;;23.05;49.10;97346.66;4220148;28;5757;-75
2022/05/16 09:22:16;;;;;;;;;;;;;;;23.06;48.95;97337.50;4220069;28;5745;-75
2022/05/16 09:24:26;;;;;;;;;;;;;;;23.06;48.91;97340.19;4219920;28;5688;-75
2022/05/16 09:26:41;;;;;;;;;;;;;;;23.07;48.92;97336.41;4216712;28;5693;-75
2022/05/16 09:28:50;;;;;;;;;;;;;;;23.08;48.65;97340.72;4219843;28;5735;-75
2022/05/16 09:30:59;;;;;;;;;;;;;;;23.07;48.50;97336.41;4215383;28;5810;-75
2022/05/16 09:33:09;;;;;;;;;;;;;;;23.09;48.75;97336.97;4218825;28;5702;-75
2022/05/16 09:35:25;;;;;;;;;;;;;;;23.11;48.27;97340.22;4215557;28;5858;-75
2022/05/16 09:37:30;;;;;;;;;;;;;;;23.14;48.34;97337.00;4203209;28;5719;-75
2022/05/16 09:39:35;;;;;;;;;;;;;;;23.18;48.15;97335.41;4212264;28;5679;-75
2022/05/16 09:41:45;;;;;;;;;;;;;;;23.22;47.98;97325.75;4212179;28;5692;-67
2022/05/16 09:43:58;;;;;;;;;;;;;;;23.28;48.24;97323.88;4202623;28;5855;-67
2022/05/16 09:46:15;;;;;;;;;;;;;;;23.35;47.65;97320.94;4202575;28;5700;-67
2022/05/16 09:48:20;;;;;;;;;;;;;;;23.37;47.88;97327.69;4202413;28;5711;-67
2022/05/16 09:50:27;;;;;;;;;;;;;;;23.39;47.33;97319.34;4202061;28;7368;-67
2022/05/16 09:52:34;;;;;;;;;;;;;;;23.43;47.49;97321.25;4202619;28;5772;-69
2022/05/16 09:54:38;;;;;;;;;;;;;;;23.48;47.31;97321.28;4201068;28;6267;-68
2022/05/16 09:56:58;;;;;;;;;;;;;;;23.54;46.84;97322.09;4218918;28;5684;-67
2022/05/16 09:59:02;;;;;;;;;;;;;;;23.57;46.85;97321.59;4217775;28;5683;-68
2022/05/16 10:01:08;;;;;;;;;;;;;;;23.61;46.48;97320.00;4202491;28;5097;-67
2022/05/16 10:03:23;;;;;;;;;;;;;;;23.66;46.83;97314.63;4202138;28;5692;-66
2022/05/16 10:05:29;;;;;;;;;;;;;;;23.70;46.74;97317.63;4201040;28;5070;-66
2022/05/16 10:07:44;;;;;;;;;;;;;;;23.68;45.94;97320.59;4202196;28;5725;-66
2022/05/16 10:09:49;;;;;;;;;;;;;;;23.70;46.28;97314.94;4210353;28;5690;-66
2022/05/16 10:11:52;;;;;;;;;;;;;;;23.74;45.72;97321.41;4212686;28;6453;-66
2022/05/16 10:13:56;;;;;;;;;;;;;;;23.77;45.60;97327.09;4206773;28;5659;-66
2022/05/16 10:16:02;;;;;;;;;;;;;;;23.80;45.55;97315.78;4218224;28;5750;-67
2022/05/16 10:18:09;;;;;;;;;;;;;;;23.83;45.71;97332.53;4218759;28;5663;-67
2022/05/16 10:20:16;;;;;;;;;;;;;;;23.84;45.27;97332.25;4218760;28;5672;-67
2022/05/16 10:22:25;;;;;;;;;;;;;;;23.84;45.09;97326.84;4218664;28;5655;-67
2022/05/16 10:24:54;;;;;;;;;;;;;;;23.87;45.12;97320.91;4218701;28;5758;-67
2022/05/16 10:27:01;;;;;;;;;;;;;;;23.89;44.96;97317.94;4218832;28;5727;-67
2022/05/16 10:29:07;;;;;;;;;;;;;;;23.89;44.41;97317.94;4218684;28;6511;-67
2022/05/16 10:33:43;;;;;;;;;;;;;;;23.98;44.55;97316.34;4211011;28;5838;-67
2022/05/16 10:35:50;;;;;;;;;;;;;;;24.01;44.22;97321.22;4210210;28;5707;-67
2022/05/16 10:37:57;;;;;;;;;;;;;;;24.02;44.35;97317.47;4201991;28;5772;-67
2022/05/16 10:40:07;;;;;;;;;;;;;;;24.02;43.99;97309.38;4201554;28;5757;-66
2022/05/16 10:42:15;;;;;;;;;;;;;;;24.01;43.99;97315.81;4201719;28;5090;-67
2022/05/16 10:44:24;;;;;;;;;;;;;;;24.02;43.55;97312.88;4206332;28;5742;-67
2022/05/16 10:46:32;;;;;;;;;;;;;;;24.03;43.28;97319.09;4218355;28;6464;-67
2022/05/16 10:48:41;;;;;;;;;;;;;;;24.04;43.62;97315.31;4218269;28;5667;-67
2022/05/16 10:50:48;;;;;;;;;;;;;;;24.09;43.38;97323.41;4218065;28;5823;-67
2022/05/16 10:52:56;;;;;;;;;;;;;;;24.13;42.95;97318.31;4218085;28;5696;-67
2022/05/16 10:54:59;;;;;;;;;;;;;;;24.17;43.33;97309.38;4216302;28;5734;-67
2022/05/16 10:57:47;;;;;;;;;;;;;;;24.20;42.81;97314.25;4201173;28;6354;-67
2022/05/16 11:00:07;;;;;;;;;;;;;;;24.20;42.99;97314.25;4147824;28;5788;-66
2022/05/16 11:02:23;;;;;;;;;;;;;;;24.20;42.93;97319.66;4149836;28;5807;-67
2022/05/16 11:04:41;;;;;;;;;;;;;;;24.20;42.86;97322.34;4149828;28;5765;-67
2022/05/16 11:07:10;;;;;;;;;;;;;;;24.18;42.57;97312.91;4165903;28;5873;-67
2022/05/16 11:09:19;;;;;;;;;;;;;;;24.16;42.48;97313.16;4162600;28;5817;-67
2022/05/16 11:11:27;;;;;;;;;;;;;;;24.16;42.07;97312.34;4163765;28;6511;-67
2022/05/16 11:13:36;;;;;;;;;;;;;;;24.16;42.45;97313.16;4159673;28;5766;-67
2022/05/16 11:15:45;;;;;;;;;;;;;;;24.16;42.41;97309.66;4161775;28;5758;-67
2022/05/16 11:17:55;;;;;;;;;;;;;;;24.15;42.34;97303.44;4165716;28;5826;-66
2022/05/16 11:20:08;;;;;;;;;;;;;;;24.11;42.41;97307.75;4166311;28;5913;-66
2022/05/16 11:22:15;;;;;;;;;;;;;;;24.10;41.79;97298.00;4165850;28;5761;-66
2022/05/16 11:24:30;;;;;;;;;;;;;;;24.10;42.06;97304.22;4165821;28;5826;-67
2022/05/16 11:26:41;;;;;;;;;;;;;;;24.10;42.08;97308.81;4160378;28;5874;-67
2022/05/16 11:31:13;;;;;;;;;;;;;;;24.10;41.66;97308.81;4148551;28;5764;-67
2022/05/16 11:33:29;;;;;;;;;;;;;;;24.09;42.16;97307.19;4149263;28;5784;-67
2022/05/16 11:35:37;;;;;;;;;;;;;;;24.06;41.98;97302.34;4156517;28;5771;-66
2022/05/16 11:38:15;;;;;;;;;;;;;;;24.04;41.87;97307.19;4206950;28;5758;-67
2022/05/16 11:40:24;;;;;;;;;;;;;;;24.00;41.89;97303.41;4217089;28;5743;-66
2022/05/16 11:42:35;;;;;;;;;;;;;;;23.98;41.74;97290.16;4217515;28;5773;-67
2022/05/16 11:44:50;;;;;;;;;;;;;;;23.98;41.81;97292.06;4216139;28;5690;-69
2022/05/16 11:47:01;;;;;;;;;;;;;;;23.94;41.81;97288.28;4202133;28;5802;-68
2022/05/16 11:49:37;;;;;;;;;;;;;;;23.91;42.22;97283.41;4217731;28;5675;-70
2022/05/16 11:52:29;;;;;;;;;;;;;;;23.96;42.14;97272.63;4216013;28;5089;-69
2022/05/16 11:54:35;;;;;;;;;;;;;;;24.01;42.15;97275.31;4217086;28;5679;-69
2022/05/16 12:02:09;;;;;;;;;;;;;;;24.13;42.21;97270.50;4216635;28;5085;-70
2022/05/16 12:04:16;;;;;;;;;;;;;;;24.14;42.40;97274.00;4217953;28;5757;-72
2022/05/16 12:06:26;;;;;;;;;;;;;;;24.16;42.38;97264.56;4209502;28;5700;-70
2022/05/16 12:08:39;;;;;;;;;;;;;;;24.23;42.18;97264.25;4201829;28;5743;-69
2022/05/16 12:10:57;;;;;;;;;;;;;;;24.32;42.34;97260.78;4216886;28;5663;-70
2022/05/16 12:13:18;;;;;;;;;;;;;;;24.38;41.77;97261.63;4213351;28;5792;-71
2022/05/16 12:15:30;;;;;;;;;;;;;;;24.44;41.89;97260.53;4214544;28;5763;-71
2022/05/16 12:17:36;;;;;;;;;;;;;;;24.46;41.75;97260.25;4215610;28;6031;-70
2022/05/16 12:19:41;;;;;;;;;;;;;;;24.47;41.96;97260.00;4214619;28;5109;-73
2022/05/16 12:21:57;;;;;;;;;;;;;;;24.52;42.08;97254.59;4206069;28;5826;-72
2022/05/16 12:24:03;;;;;;;;;;;;;;;24.55;41.70;97256.75;4211257;28;5696;-70
2022/05/16 12:26:09;;;;;;;;;;;;;;;24.60;41.67;97259.47;4215875;28;5726;-70
2022/05/16 12:28:23;;;;;;;;;;;;;;;24.66;42.01;97252.13;4219424;28;5754;-71
2022/05/16 12:30:45;;;;;;;;;;;;;;;24.65;41.87;97256.72;4206906;28;5775;-69
2022/05/16 12:32:59;;;;;;;;;;;;;;;24.62;41.74;97256.47;4210164;28;5758;-72
2022/05/16 12:35:06;;;;;;;;;;;;;;;24.63;41.46;97258.09;4211539;28;5750;-71
2022/05/16 12:37:11;;;;;;;;;;;;;;;24.66;41.30;97254.84;4218138;28;5754;-73
2022/05/16 12:39:26;;;;;;;;;;;;;;;24.70;41.62;97255.94;4215622;28;5687;-72
2022/05/16 12:41:55;;;;;;;;;;;;;;;24.70;41.76;97253.22;4217219;28;5663;-71
2022/05/16 12:44:09;;;;;;;;;;;;;;;24.70;41.76;97247.81;4213114;28;5938;-71
2022/05/16 12:46:39;;;;;;;;;;;;;;;24.73;41.24;97244.56;4211709;28;5093;-70
2022/05/16 12:49:18;;;;;;;;;;;;;;;24.73;41.60;97236.47;4209983;28;5957;-71
2022/05/16 12:51:47;;;;;;;;;;;;;;;24.75;41.27;97242.41;4208876;28;5150;-71
2022/05/16 12:54:08;;;;;;;;;;;;;;;24.78;41.75;97241.03;4213822;28;5767;-72
2022/05/16 12:56:21;;;;;;;;;;;;;;;24.83;41.27;97235.63;4207723;28;5685;-71
2022/05/16 12:58:35;;;;;;;;;;;;;;;24.89;41.21;97238.03;4212789;28;5692;-71
2022/05/16 13:00:46;;;;;;;;;;;;;;;24.92;41.49;97237.50;4216147;28;5671;-72
2022/05/16 13:03:03;;;;;;;;;;;;;;;24.91;41.56;97241.28;4211498;28;5687;-71
2022/05/16 13:05:15;;;;;;;;;;;;;;;24.91;41.82;97235.88;4210957;28;5695;-70
2022/05/16 13:07:25;;;;;;;;;;;;;;;24.88;41.72;97232.91;4203248;28;5709;-70
2022/05/16 13:09:43;;;;;;;;;;;;;;;24.86;41.79;97226.97;4215252;28;5739;-72
2022/05/16 13:11:54;;;;;;;;;;;;;;;24.86;41.81;97229.66;4208024;28;5301;-72
2022/05/16 13:14:07;;;;;;;;;;;;;;;24.85;42.19;97225.34;4230281;27;5684;-73
2022/05/16 13:16:18;;;;;;;;;;;;;;;24.86;42.14;97219.66;4214364;28;5734;-72
2022/05/16 13:18:26;;;;;;;;;;;;;;;24.87;42.10;97221.28;4206869;28;5794;-72
2022/05/16 13:20:33;;;;;;;;;;;;;;;24.91;42.13;97218.84;4218454;28;6699;-71
2022/05/16 13:22:41;;;;;;;;;;;;;;;24.92;42.00;97213.16;4218798;28;5683;-72
2022/05/16 13:24:44;;;;;;;;;;;;;;;24.94;41.96;97207.47;4218677;28;5778;-72
2022/05/16 13:29:34;;;;;;;;;;;;;;;25.02;41.61;97208.81;4216977;28;5854;-72
2022/05/16 13:31:40;;;;;;;;;;;;;;;24.99;41.76;97202.03;4216993;28;5679;-72
2022/05/16 13:33:43;;;;;;;;;;;;;;;24.95;41.63;97195.56;4215911;28;5742;-70
2022/05/16 13:35:46;;;;;;;;;;;;;;;24.94;41.60;97199.38;4213009;28;5672;-72
2022/05/16 13:37:53;;;;;;;;;;;;;;;24.96;41.60;97192.59;4208552;28;5708;-73
2022/05/16 13:40:01;;;;;;;;;;;;;;;24.96;41.74;97192.59;4214018;28;5667;-72
2022/05/16 13:42:05;;;;;;;;;;;;;;;24.91;41.50;97184.47;4209135;28;5784;-70
2022/05/16 13:44:12;;;;;;;;;;;;;;;24.90;41.68;97185.56;4208669;28;5752;-72
2022/05/16 13:46:15;;;;;;;;;;;;;;;24.89;41.55;97186.66;4213701;28;5862;-70
2022/05/16 13:48:18;;;;;;;;;;;;;;;24.87;41.35;97175.31;4211368;28;5679;-72
2022/05/16 13:50:29;;;;;;;;;;;;;;;24.87;41.68;97180.72;4214621;28;6363;-72
2022/05/16 13:52:39;;;;;;;;;;;;;;;24.87;41.42;97183.44;4205466;28;5709;-70
2022/05/16 13:54:43;;;;;;;;;;;;;;;24.87;41.33;97171.78;4207926;28;5674;-73
2022/05/16 13:56:49;;;;;;;;;;;;;;;24.86;41.80;97171.00;4216799;28;5928;-71
2022/05/16 13:58:52;;;;;;;;;;;;;;;24.85;41.93;97172.06;4206736;28;7714;-72
2022/05/16 14:01:12;;;;;;;;;;;;;;;24.84;41.84;97167.75;4212611;28;5679;-69
2022/05/16 14:03:36;;;;;;;;;;;;;;;24.85;41.93;97163.97;4205504;28;5693;-70
2022/05/16 14:05:41;;;;;;;;;;;;;;;24.84;41.97;97159.66;4198302;28;5796;-70
2022/05/16 14:07:45;;;;;;;;;;;;;;;24.85;41.88;97163.97;4211341;28;5878;-69
2022/05/16 14:09:52;;;;;;;;;;;;;;;24.86;42.16;97168.28;4202465;28;5741;-69
2022/05/16 14:11:56;;;;;;;;;;;;;;;24.87;41.95;97152.88;4207770;28;5671;-69
2022/05/16 14:14:02;;;;;;;;;;;;;;;24.87;42.19;97155.56;4208964;28;7707;-69
2022/05/16 14:16:10;;;;;;;;;;;;;;;24.88;42.13;97152.59;4218945;28;5671;-69
2022/05/16 14:18:23;;;;;;;;;;;;;;;24.90;42.28;97155.00;4218361;28;5839;-69
2022/05/16 14:20:26;;;;;;;;;;;;;;;24.90;42.06;97165.84;4218648;28;5766;-69
2022/05/16 14:22:34;;;;;;;;;;;;;;;24.88;42.18;97149.88;4202846;28;5791;-69
2022/05/16 14:24:44;;;;;;;;;;;;;;;24.88;42.35;97151.78;4218708;28;5768;-69
2022/05/16 14:26:50;;;;;;;;;;;;;;;24.87;41.99;97148.28;4218968;28;5069;-69
2022/05/16 14:28:56;;;;;;;;;;;;;;;24.89;42.53;97148.00;4217571;28;5778;-69
2022/05/16 14:31:04;;;;;;;;;;;;;;;24.87;42.34;97153.69;4215412;28;5791;-69
2022/05/16 14:33:16;;;;;;;;;;;;;;;24.87;42.18;97152.88;4210128;28;5716;-69
2022/05/16 14:35:23;;;;;;;;;;;;;;;24.87;42.53;97150.97;4207698;28;5716;-69
2022/05/16 14:37:29;;;;;;;;;;;;;;;24.87;42.14;97150.97;4202195;28;5756;-69
2022/05/16 14:39:40;;;;;;;;;;;;;;;24.88;42.50;97147.19;4209700;28;6655;-69
2022/05/16 14:41:55;;;;;;;;;;;;;;;24.91;42.06;97146.63;4201139;28;5773;-70
2022/05/16 14:44:04;;;;;;;;;;;;;;;24.90;42.40;97147.72;4214388;28;5687;-70
2022/05/16 14:48:31;;;;;;;;;;;;;;;24.93;42.56;97152.59;4206446;28;5674;-70
2022/05/16 14:50:34;;;;;;;;;;;;;;;24.94;42.19;97158.81;4200838;28;5787;-69
2022/05/16 14:52:40;;;;;;;;;;;;;;;24.96;42.57;97149.31;4201863;28;6558;-69
2022/05/16 14:54:50;;;;;;;;;;;;;;;24.97;42.05;97155.53;4198635;28;5784;-69
2022/05/16 14:56:54;;;;;;;;;;;;;;;24.97;42.42;97150.94;4206955;28;5774;-69
2022/05/16 14:58:57;;;;;;;;;;;;;;;24.96;42.30;97146.63;4210191;28;5766;-69
2022/05/16 15:05:41;;;;;;;;;;;;;;;24.94;41.93;97145.28;4214829;28;5755;-69
2022/05/16 15:07:45;;;;;;;;;;;;;;;24.96;42.35;97146.63;4206189;28;5762;-69
2022/05/16 15:09:48;;;;;;;;;;;;;;;24.98;41.81;97141.75;4205834;28;7717;-69
2022/05/16 15:11:55;;;;;;;;;;;;;;;25.00;41.74;97143.34;4203411;28;5838;-69
2022/05/16 15:13:59;;;;;;;;;;;;;;;25.02;41.93;97143.91;4209103;28;5864;-69
2022/05/16 15:16:02;;;;;;;;;;;;;;;25.04;41.97;97145.28;4202423;28;5840;-69
2022/05/16 15:18:05;;;;;;;;;;;;;;;25.05;41.98;97143.38;4202328;28;5776;-69
2022/05/16 15:20:09;;;;;;;;;;;;;;;25.07;41.93;97141.19;4204915;28;5791;-68
2022/05/16 15:22:17;;;;;;;;;;;;;;;25.08;41.61;97140.13;4205193;28;5862;-69
2022/05/16 15:24:25;;;;;;;;;;;;;;;25.10;41.80;97135.22;4206139;28;5773;-69
2022/05/16 15:26:48;;;;;;;;;;;;;;;25.11;41.66;97134.13;4200752;28;5792;-69
2022/05/16 15:28:52;;;;;;;;;;;;;;;25.09;41.81;97137.13;4205419;28;5769;-69
2022/05/16 15:30:55;;;;;;;;;;;;;;;25.08;41.81;97132.00;4214044;28;5770;-69
2022/05/16 15:32:58;;;;;;;;;;;;;;;25.06;41.54;97128.75;4211940;28;5786;-69
2022/05/16 15:35:04;;;;;;;;;;;;;;;25.06;41.68;97137.69;4206838;28;5799;-69
2022/05/16 15:37:12;;;;;;;;;;;;;;;25.06;41.66;97126.88;4207140;28;5762;-69
2022/05/16 15:39:23;;;;;;;;;;;;;;;25.06;41.75;97126.06;4203107;28;5770;-69
2022/05/16 15:41:27;;;;;;;;;;;;;;;25.05;41.97;97125.25;4212237;28;5894;-69
2022/05/16 15:43:30;;;;;;;;;;;;;;;25.07;42.14;97122.28;4214252;28;5782;-69
2022/05/16 15:45:34;;;;;;;;;;;;;;;25.08;41.88;97123.88;4214892;28;5806;-69
2022/05/16 15:47:45;;;;;;;;;;;;;;;25.09;42.24;97125.50;4214383;28;5762;-69
2022/05/16 15:49:49;;;;;;;;;;;;;;;25.10;42.15;97127.13;4214689;28;5782;-69
2022/05/16 15:51:53;;;;;;;;;;;;;;;25.10;42.17;97122.50;4214563;28;5813;-69
2022/05/16 15:53:55;;;;;;;;;;;;;;;25.13;42.20;97121.13;4214606;28;5798;-69
2022/05/16 15:55:58;;;;;;;;;;;;;;;25.13;42.03;97118.44;4198466;28;6683;-68
2022/05/16 15:58:01;;;;;;;;;;;;;;;25.14;42.17;97120.03;4197937;28;5768;-69
2022/05/16 16:00:06;;;;;;;;;;;;;;;25.16;42.34;97116.00;4197642;28;7726;-69
2022/05/16 16:02:16;;;;;;;;;;;;;;;25.19;42.34;97122.75;4197724;28;5796;-69
2022/05/16 16:09:01;;;;;;;;;;;;;;;25.19;42.18;97114.63;4197305;28;5756;-69